Data for 07/08/2015

Time Sea-Level Adjusted Pressure Absolute Pressure Temperature Relative Humidity Dew Point   
(mb) (inHg) (mb) (inHg) (C) (F) (%) (C) (F)
00:05 1021 30.15 850 25.1 13.4 56.2 74 8.8 47.9
00:10 1021 30.15 850 25.1 13.3 56 74 8.8 47.8
00:15 1021 30.15 850 25.1 13.3 56 73 8.6 47.5
00:20 1021 30.15 850 25.1 13.3 56 73 8.6 47.5
00:25 1021 30.15 850 25.1 13.3 56 74 8.7 47.7
00:30 1021 30.15 850 25.1 13.2 55.8 74 8.7 47.7
00:35 1021 30.15 850 25.1 13.2 55.7 74 8.8 47.8
00:40 1021 30.15 850 25.1 13.1 55.5 75 8.7 47.6
00:45 1021 30.15 850 25.1 13 55.5 74 8.6 47.5
00:50 1021 30.15 850 25.1 13 55.5 75 8.7 47.6
00:55 1021 30.15 850 25.1 12.9 55.2 76 8.9 48
01:00 1021 30.15 850 25.1 12.8 55 76 8.8 47.8
01:05 1021 30.15 850 25.1 12.7 54.9 77 8.8 47.9
01:10 1021 30.15 850 25.1 12.6 54.6 78 8.8 47.8
01:15 1021 30.15 850 25.1 12.6 54.6 77 8.6 47.5
01:20 1021 30.15 850 25.1 12.6 54.8 76 8.6 47.5
01:25 1021 30.15 850 25.1 12.7 54.9 77 8.8 47.8
01:30 1021 30.15 850 25.1 12.6 54.8 77 8.8 47.9
01:35 1021 30.15 850 25.1 12.6 54.7 77 8.8 47.9
01:40 1021 30.15 850 25.1 12.6 54.7 78 8.8 47.9
01:45 1021 30.15 850 25.1 12.6 54.7 77 8.7 47.7
01:50 1021 30.15 850 25.1 12.6 54.6 78 8.9 48
01:55 1021 30.15 850 25.1 12.5 54.4 79 8.9 48.1
02:00 1021 30.15 850 25.1 12.4 54.3 79 8.9 47.9
02:05 1021 30.15 850 25.1 12.4 54.4 78 8.7 47.7
02:10 1021 30.15 850 25.1 12.4 54.4 78 8.8 47.8
02:15 1021 30.15 850 25.1 12.5 54.5 78 8.7 47.7
02:20 1021 30.15 850 25.1 12.6 54.6 77 8.7 47.7
02:25 1020 30.12 850 25.1 12.6 54.6 77 8.7 47.7
02:30 1020 30.12 850 25.1 12.6 54.7 77 8.8 47.8
02:35 1020 30.12 850 25.1 12.6 54.7 77 8.7 47.6
02:40 1020 30.12 850 25.1 12.6 54.7 77 8.8 47.8
02:45 1021 30.15 850 25.1 12.6 54.6 77 8.7 47.7
02:50 1020 30.12 850 25.1 12.6 54.6 77 8.7 47.7
02:55 1020 30.12 850 25.1 12.5 54.6 77 8.7 47.6
03:00 1020 30.12 850 25.1 12.5 54.6 77 8.7 47.6
03:05 1020 30.12 850 25.1 12.5 54.5 77 8.6 47.5
03:10 1021 30.15 850 25.1 12.5 54.5 77 8.6 47.5
03:15 1021 30.15 850 25.1 12.5 54.5 77 8.6 47.5
03:20 1021 30.15 850 25.1 12.4 54.4 78 8.7 47.6
03:25 1021 30.15 850 25.1 12.3 54.1 78 8.6 47.6
03:30 1021 30.15 850 25.1 12.1 53.8 79 8.6 47.4
03:35 1021 30.15 850 25.1 12.1 53.7 78 8.4 47.1
03:40 1021 30.15 850 25.1 12.2 53.9 77 8.3 47
03:45 1021 30.15 850 25.1 12.2 54 77 8.3 47
03:50 1021 30.15 850 25.1 12.2 54 77 8.3 46.9
03:55 1021 30.15 850 25.1 12.2 53.9 77 8.3 47
04:00 1021 30.15 850 25.1 12.1 53.8 78 8.3 47
04:05 1021 30.15 850 25.1 12 53.6 78 8.3 46.9
04:10 1021 30.15 850 25.1 11.9 53.5 78 8.3 46.9
04:15 1021 30.15 850 25.1 11.8 53.3 78 8.2 46.8
04:20 1021 30.15 850 25.1 11.8 53.3 78 8.1 46.7
04:25 1021 30.15 850 25.1 11.8 53.2 78 8.1 46.7
04:30 1021 30.15 850 25.1 11.8 53.2 78 8.1 46.6
04:35 1021 30.15 850 25.1 11.9 53.3 78 8.1 46.6
04:40 1021 30.15 850 25.1 11.8 53.3 78 8.1 46.6
04:45 1021 30.15 850 25.1 11.9 53.3 78 8.1 46.6
04:50 1021 30.15 850 25.1 12 53.7 77 8.1 46.5
04:55 1021 30.15 850 25.1 12.1 53.8 77 8.2 46.8
05:00 1021 30.15 850 25.1 12.1 53.8 76 8.1 46.6
05:05 1021 30.15 850 25.1 12.4 54.2 76 8.2 46.8
05:10 1021 30.15 850 25.1 12.4 54.4 76 8.3 47
05:15 1021 30.15 850 25.1 12.4 54.4 76 8.4 47
05:20 1021 30.15 850 25.1 12.4 54.3 76 8.4 47
05:25 1021 30.15 850 25.1 12.4 54.3 76 8.4 47.1
05:30 1021 30.15 850 25.1 12.4 54.3 76 8.4 47.1
05:35 1021 30.15 850 25.1 12.4 54.3 76 8.3 47
05:40 1021 30.15 850 25.1 12.4 54.3 77 8.5 47.2
05:45 1021 30.15 850 25.1 12.4 54.3 77 8.4 47.2
05:50 1021 30.15 850 25.1 12.4 54.3 76 8.4 47.1
05:55 1021 30.15 850 25.1 12.5 54.5 76 8.4 47.1
06:00 1021 30.15 850 25.1 12.7 54.9 75 8.4 47.1
06:05 1021 30.15 850 25.1 12.9 55.2 74 8.4 47.2
06:10 1021 30.15 850 25.1 12.9 55.3 74 8.5 47.3
06:15 1021 30.15 850 25.1 13.1 55.6 74 8.5 47.4
06:20 1021 30.15 850 25.1 13.2 55.8 73 8.6 47.5
06:25 1021 30.15 850 25.1 13.4 56.1 72 8.6 47.4
06:30 1021 30.15 850 25.1 13.4 56.2 72 8.6 47.5
06:35 1021 30.15 850 25.1 13.6 56.4 72 8.6 47.5
06:40 1021 30.15 850 25.1 13.7 56.7 71 8.6 47.6
06:45 1021 30.15 850 25.1 13.9 57 71 8.7 47.6
06:50 1021 30.15 850 25.1 14.2 57.6 69 8.6 47.5
06:55 1021 30.15 850 25.1 14.5 58 67 8.5 47.4
07:00 1021 30.15 850 25.1 14.4 57.9 68 8.6 47.4
07:05 1021 30.15 850 25.1 14.6 58.2 66 8.3 47
07:10 1021 30.15 850 25.1 14.5 58.2 65 8.2 46.7
07:15 1021 30.15 850 25.1 14.6 58.3 65 8.1 46.5
07:20 1021 30.15 850 25.1 14.9 58.7 63 7.8 46.1
07:25 1021 30.15 850 25.1 15.2 59.3 63 8.2 46.7
07:30 1021 30.15 850 25.1 15.4 59.7 61 7.9 46.2
07:35 1021 30.15 850 25.1 15.5 60 60 7.9 46.2
07:40 1021 30.15 850 25.1 15.6 60.2 59 7.8 46
07:45 1021 30.15 850 25.1 15.6 60.1 59 7.6 45.7
07:50 1021 30.15 850 25.1 15.6 60 59 7.7 45.9
07:55 1021 30.15 850 25.1 16 60.7 56 7.4 45.3
08:00 1021 30.15 850 25.1 16 60.7 58 7.8 46
08:05 1021 30.15 850 25.1 16 60.8 57 7.7 45.9
08:10 1021 30.15 850 25.1 16.2 61.2 56 7.5 45.4
08:15 1021 30.15 850 25.1 16.5 61.7 55 7.5 45.6
08:20 1021 30.15 850 25.1 16.7 62 56 7.9 46.2
08:25 1021 30.15 850 25.1 16.6 61.9 57 8.1 46.6
08:30 1021 30.15 850 25.1 16.7 62.1 56 8 46.4
08:35 1021 30.15 850 25.1 17.1 62.7 55 8 46.4
08:40 1021 30.15 850 25.1 17 62.5 55 8.1 46.5
08:45 1021 30.15 850 25.1 17.1 62.8 55 8 46.5
08:50 1021 30.15 850 25.1 17.3 63.2 52 7.6 45.7
08:55 1021 30.15 850 25.1 17.5 63.5 52 7.6 45.7
09:00 1020 30.12 850 25.1 17.3 63.1 54 7.9 46.2
09:05 1020 30.12 850 25.1 17.5 63.4 52 7.6 45.7
09:10 1020 30.12 850 25.1 17.5 63.4 54 8.1 46.5
09:15 1020 30.12 850 25.1 17.6 63.8 54 8.3 46.9
09:20 1020 30.12 850 25.1 17.6 63.7 52 7.8 46.1
09:25 1020 30.12 849 25.07 17.7 63.9 52 8 46.3
09:30 1020 30.12 849 25.07 18 64.3 51 7.8 46.1
09:35 1020 30.12 849 25.07 18.4 65.1 51 8.3 47
09:40 1020 30.12 849 25.07 18.6 65.4 50 8 46.4
09:45 1020 30.12 849 25.07 18.8 65.8 49 7.9 46.3
09:50 1020 30.12 849 25.07 18.5 65.2 52 8.5 47.4
09:55 1020 30.12 849 25.07 18.8 65.8 50 8.4 47.1
10:00 1020 30.12 849 25.07 18.7 65.7 50 8.2 46.7
10:05 1020 30.12 849 25.07 19 66.1 49 8.2 46.7
10:10 1020 30.12 849 25.07 19.2 66.6 50 8.8 47.8
10:15 1020 30.12 849 25.07 19.1 66.5 48 8.1 46.6
10:20 1020 30.12 849 25.07 19.4 66.9 49 8.4 47.2
10:25 1020 30.12 849 25.07 19.6 67.3 48 8.5 47.3
10:30 1020 30.12 849 25.07 19.7 67.5 47 8.3 46.9
10:35 1020 30.12 849 25.07 19.5 67 48 8.3 47
10:40 1020 30.12 849 25.07 19.4 66.8 48 8.2 46.7
10:45 1020 30.12 849 25.07 19.7 67.4 47 8.3 46.9
10:50 1019 30.09 849 25.07 19.6 67.3 47 8.1 46.6
10:55 1019 30.09 849 25.07 20.3 68.6 45 8.1 46.6
11:00 1019 30.09 849 25.07 20.2 68.3 47 8.5 47.4
11:05 1019 30.09 849 25.07 20.4 68.7 45 8.2 46.7
11:10 1019 30.09 849 25.07 20.1 68.1 47 8.5 47.3
11:15 1019 30.09 848 25.04 20.3 68.6 46 8.5 47.3
11:20 1019 30.09 848 25.04 20.7 69.2 45 8.4 47.2
11:25 1019 30.09 848 25.04 20.9 69.7 44 8.3 46.9
11:30 1019 30.09 848 25.04 21.2 70.1 43 8.4 47.2
11:35 1019 30.09 848 25.04 20.8 69.5 44 8.2 46.7
11:40 1019 30.09 848 25.04 21.4 70.4 43 8.6 47.4
11:45 1019 30.09 848 25.04 21.5 70.6 43 8.5 47.2
11:50 1019 30.09 848 25.04 21.2 70.1 42 7.9 46.2
11:55 1019 30.09 848 25.04 21.6 71 42 8.5 47.3
12:00 1019 30.09 848 25.04 21.3 70.3 44 8.7 47.6
12:05 1019 30.09 848 25.04 21.7 71.1 42 8.5 47.3
12:10 1019 30.09 848 25.04 22.2 71.9 42 8.9 48.1
12:15 1019 30.09 848 25.04 22.3 72.1 40 8.4 47.1
12:20 1019 30.09 848 25.04 21.6 71 43 8.7 47.7
12:25 1018 30.06 848 25.04 21.5 70.8 42 8.1 46.5
12:30 1018 30.06 848 25.04 21.6 70.8 41 8.1 46.6
12:35 1018 30.06 848 25.04 22.3 72.1 38 7.3 45.1
12:40 1018 30.06 848 25.04 22.5 72.4 40 8.3 46.9
12:45 1018 30.06 848 25.04 22.2 71.9 42 8.8 47.8
12:50 1018 30.06 847 25.01 22.3 72.1 39 7.9 46.1
12:55 1018 30.06 847 25.01 22.3 72.1 40 8.3 47
13:00 1018 30.06 847 25.01 22.4 72.3 38 7.7 45.8
13:05 1018 30.06 847 25.01 22.4 72.3 40 8.1 46.6
13:10 1018 30.06 847 25.01 22.5 72.4 39 8.2 46.7
13:15 1018 30.06 847 25.01 22.2 71.9 39 7.8 46
13:20 1018 30.06 847 25.01 22.4 72.4 38 7.7 45.8
13:25 1018 30.06 847 25.01 22.8 73.1 36 7.2 45
13:30 1018 30.06 847 25.01 23.1 73.6 35 7.1 44.8
13:35 1018 30.06 847 25.01 23.4 74 36 7.6 45.7
13:40 1018 30.06 847 25.01 23.1 73.6 35 6.9 44.4
13:45 1018 30.06 847 25.01 23.4 74.1 33 6.5 43.7
13:50 1017 30.03 847 25.01 23.6 74.4 33 6.6 44
13:55 1017 30.03 847 25.01 23.3 73.9 34 6.7 44
14:00 1017 30.03 847 25.01 23 73.3 36 7.2 44.9
14:05 1017 30.03 846 24.98 23.3 73.9 34 6.6 43.9
14:10 1017 30.03 846 24.98 23.6 74.5 33 6.7 44.1
14:15 1017 30.03 846 24.98 23.2 73.8 34 6.8 44.2
14:20 1017 30.03 846 24.98 23.4 74.2 33 6.4 43.6
14:25 1017 30.03 846 24.98 23.9 75.1 32 6.6 43.8
14:30 1017 30.03 846 24.98 23.8 74.8 34 7.1 44.8
14:35 1017 30.03 846 24.98 23.3 73.9 35 7 44.6
14:40 1017 30.03 846 24.98 23.2 73.8 35 7.2 45
14:45 1017 30.03 846 24.98 23.6 74.6 33 6.4 43.6
14:50 1017 30.03 846 24.98 23.5 74.3 33 6.7 44.1
14:55 1017 30.03 846 24.98 23.5 74.2 33 6.6 44
15:00 1017 30.03 846 24.98 23.9 75 32 6.6 43.9
15:05 1017 30.03 846 24.98 23.3 73.9 34 6.6 43.8
15:10 1017 30.03 846 24.98 23 73.5 34 6.4 43.5
15:15 1017 30.03 846 24.98 23.6 74.5 32 6.2 43.2
15:20 1017 30.03 846 24.98 23.5 74.3 34 6.8 44.3
15:25 1017 30.03 846 24.98 23.8 74.9 33 6.8 44.2
15:30 1017 30.03 846 24.98 24 75.2 32 6.3 43.3
15:35 1017 30.03 846 24.98 23.8 74.9 32 6.3 43.3
15:40 1017 30.03 846 24.98 23.8 74.9 31 6.1 43
15:45 1017 30.03 846 24.98 23.8 74.8 31 6.1 43
15:50 1017 30.03 846 24.98 24 75.2 30 5.6 42.1
15:55 1017 30.03 846 24.98 24.2 75.5 30 5.9 42.6
16:00 1017 30.03 846 24.98 23.7 74.6 32 6 42.8
16:05 1016 30 846 24.98 23.9 74.9 31 5.8 42.5
16:10 1016 30 846 24.98 23.9 75 31 5.8 42.5
16:15 1016 30 846 24.98 24.1 75.4 31 6.2 43.2
16:20 1016 30 846 24.98 24.3 75.7 29 5.5 41.9
16:25 1016 30 846 24.98 23.9 75.1 31 5.8 42.5
16:30 1016 30 845 24.95 23.9 75 31 5.8 42.5
16:35 1016 30 845 24.95 24.4 75.9 30 5.8 42.4
16:40 1016 30 845 24.95 24 75.1 30 5.7 42.2
16:45 1016 30 845 24.95 23.7 74.7 30 5.3 41.6
16:50 1016 30 845 24.95 23.8 74.8 30 5.6 42
16:55 1016 30 845 24.95 23.8 74.8 30 5.2 41.3
17:00 1016 30 845 24.95 24 75.2 29 5 40.9
17:05 1016 30 845 24.95 23.7 74.6 28 4.5 40.1
17:10 1016 30 845 24.95 23.8 74.8 29 4.9 40.9
17:15 1016 30 845 24.95 23.6 74.4 30 5 41.1
17:20 1016 30 845 24.95 23.7 74.7 29 5 40.9
17:25 1016 30 845 24.95 23.7 74.7 30 5.4 41.6
17:30 1016 30 845 24.95 23.5 74.2 30 4.9 40.9
17:35 1016 30 845 24.95 23.5 74.2 29 4.8 40.6
17:40 1016 30 845 24.95 23.4 74.1 29 4.5 40.1
17:45 1016 30 845 24.95 23.4 74.1 29 4.5 40.1
17:50 1016 30 845 24.95 23.4 74.1 30 4.9 40.8
17:55 1016 30 845 24.95 23.1 73.6 30 4.6 40.3
18:00 1016 30 845 24.95 23 73.3 29 4.4 39.9
18:05 1016 30 845 24.95 23 73.4 28 4 39.1
18:10 1016 30 845 24.95 23.1 73.6 29 4.2 39.5
18:15 1016 30 845 24.95 23 73.5 30 4.7 40.4
18:20 1016 30 845 24.95 23.2 73.8 29 4.5 40
18:25 1016 30 845 24.95 23 73.4 30 4.6 40.3
18:30 1016 30 845 24.95 22.8 73 30 4.5 40.2
18:35 1016 30 845 24.95 22.7 72.8 31 4.7 40.5
18:40 1016 30 845 24.95 22.7 72.8 30 4.6 40.3
18:45 1016 30 845 24.95 22.6 72.8 30 4.6 40.3
18:50 1016 30 845 24.95 22.6 72.6 31 4.9 40.8
18:55 1016 30 845 24.95 22.4 72.4 31 4.8 40.6
19:00 1016 30 845 24.95 22.3 72.2 31 4.6 40.4
19:05 1016 30 845 24.95 22.2 72 32 4.9 40.8
19:10 1016 30 845 24.95 22.1 71.9 32 5 41
19:15 1016 30 845 24.95 22 71.6 32 5 40.9
19:20 1016 30 845 24.95 21.9 71.4 33 5 40.9
19:25 1016 30 845 24.95 21.8 71.2 33 5 41.1
19:30 1016 30 845 24.95 21.7 71 34 5.2 41.4
19:35 1016 30 845 24.95 21.6 70.8 34 5.3 41.5
19:40 1016 30 845 24.95 21.4 70.6 35 5.4 41.7
19:45 1016 30 845 24.95 21.3 70.3 36 5.7 42.3
19:50 1016 30 845 24.95 21.1 70 36 5.7 42.3
19:55 1016 30 845 24.95 21 69.8 36 5.7 42.2
20:00 1016 30 845 24.95 20.9 69.5 37 5.7 42.2
20:05 1016 30 845 24.95 20.8 69.4 37 5.7 42.2
20:10 1016 30 845 24.95 20.6 69.1 38 5.8 42.4
20:15 1016 30 845 24.95 20.5 68.8 38 5.8 42.5
20:20 1016 30 845 24.95 20.3 68.5 39 5.9 42.7
20:25 1016 30 845 24.95 20.1 68.2 39 5.9 42.7
20:30 1016 30 845 24.95 19.9 67.7 40 6 42.8
20:35 1016 30 845 24.95 19.7 67.4 41 6.2 43.1
20:40 1016 30 846 24.98 19.4 67 42 6.2 43.1
20:45 1017 30.03 846 24.98 19.3 66.7 42 6.3 43.3
20:50 1017 30.03 846 24.98 19.1 66.4 43 6.2 43.2
20:55 1017 30.03 846 24.98 19.1 66.4 42 6.2 43.1
21:00 1017 30.03 846 24.98 19.1 66.4 42 6.1 42.9
21:05 1017 30.03 846 24.98 19.1 66.4 42 6.2 43.1
21:10 1017 30.03 846 24.98 19.1 66.4 42 6.2 43.1
21:15 1017 30.03 846 24.98 19.1 66.4 42 6.1 42.9
21:20 1017 30.03 846 24.98 19.1 66.3 42 6.1 42.9
21:25 1017 30.03 846 24.98 19.1 66.3 43 6.2 43.2
21:30 1017 30.03 846 24.98 19.1 66.3 43 6.3 43.3
21:35 1017 30.03 846 24.98 19.1 66.4 43 6.4 43.5
21:40 1017 30.03 846 24.98 19.1 66.4 43 6.5 43.7
21:45 1017 30.03 846 24.98 19 66.2 44 6.5 43.7
21:50 1017 30.03 846 24.98 19 66.1 44 6.6 43.9
21:55 1017 30.03 846 24.98 18.9 65.9 45 6.7 44.1
22:00 1017 30.03 846 24.98 18.7 65.7 45 6.8 44.3
22:05 1017 30.03 846 24.98 18.7 65.6 45 6.8 44.2
22:10 1017 30.03 846 24.98 18.6 65.6 46 6.8 44.3
22:15 1017 30.03 846 24.98 18.6 65.4 46 6.8 44.2
22:20 1017 30.03 846 24.98 18.5 65.2 46 6.9 44.4
22:25 1017 30.03 846 24.98 18.3 64.9 47 7 44.6
22:30 1017 30.03 846 24.98 18.1 64.6 48 6.9 44.5
22:35 1017 30.03 846 24.98 18.1 64.5 48 7 44.5
22:40 1017 30.03 846 24.98 18.1 64.6 48 7.1 44.7
22:45 1017 30.03 846 24.98 18.1 64.5 48 7 44.6
22:50 1017 30.03 846 24.98 18 64.5 48 7 44.6
22:55 1017 30.03 846 24.98 18.1 64.5 48 7 44.6
23:00 1017 30.03 846 24.98 18 64.4 48 7 44.5
23:05 1017 30.03 846 24.98 17.9 64.3 48 7 44.6
23:10 1017 30.03 846 24.98 17.9 64.1 49 7.2 44.9
23:15 1017 30.03 846 24.98 17.7 63.8 50 7.1 44.9
23:20 1017 30.03 846 24.98 17.5 63.5 51 7.3 45.2
23:25 1017 30.03 846 24.98 17.1 62.8 52 7.2 45
23:30 1017 30.03 846 24.98 16.9 62.5 52 7.2 45
23:35 1017 30.03 846 24.98 16.9 62.4 52 7.1 44.9
23:40 1017 30.03 846 24.98 17.1 62.8 51 7 44.6
23:45 1017 30.03 846 24.98 17.3 63.1 51 7.2 45
23:50 1017 30.03 846 24.98 17.3 63.1 51 7.2 45
23:55 1017 30.03 846 24.98 17.3 63.2 51 7.1 44.8
24:00 1017 30.03 846 24.98 17.3 63.2 51 7.1 44.8